createdAt,value
2022-10-28T00:00:22.385Z,3.42
2022-10-28T00:02:50.070Z,4.35
2022-10-28T00:05:17.815Z,3.55
2022-10-28T00:07:45.494Z,4.22
2022-10-28T00:10:13.102Z,3.83
2022-10-28T00:12:42.135Z,3.17
2022-10-28T00:15:10.284Z,4.32
2022-10-28T00:17:37.894Z,5.18
2022-10-28T00:20:05.923Z,4.00
2022-10-28T00:22:33.564Z,3.78
2022-10-28T00:25:01.167Z,4.55
2022-10-28T00:27:29.868Z,3.78
2022-10-28T00:29:58.927Z,3.60
2022-10-28T00:32:26.533Z,4.32
2022-10-28T00:34:54.165Z,4.28
2022-10-28T00:37:21.822Z,4.57
2022-10-28T00:39:49.448Z,3.53
2022-10-28T00:42:18.998Z,3.92
2022-10-28T00:44:57.149Z,3.90
2022-10-28T00:47:31.598Z,3.80
2022-10-28T00:50:02.287Z,3.25
2022-10-28T00:52:31.205Z,3.85
2022-10-28T00:55:00.616Z,4.05
2022-10-28T00:57:32.227Z,3.00
2022-10-28T01:00:00.756Z,2.97
2022-10-28T01:02:29.866Z,3.28
2022-10-28T01:04:57.698Z,3.47
2022-10-28T01:07:25.591Z,3.42
2022-10-28T01:09:53.491Z,3.88
2022-10-28T01:12:26.121Z,3.33
2022-10-28T01:15:00.630Z,4.22
2022-10-28T01:17:39.457Z,3.72
2022-10-28T01:20:25.840Z,3.70
2022-10-28T01:22:56.738Z,2.88
2022-10-28T01:25:31.713Z,4.00
2022-10-28T01:28:10.325Z,3.78
2022-10-28T01:30:43.312Z,2.97
2022-10-28T01:33:15.570Z,3.00
2022-10-28T01:35:46.897Z,2.92
2022-10-28T01:38:18.853Z,2.67
2022-10-28T01:40:48.660Z,3.33
2022-10-28T01:43:18.627Z,4.22
2022-10-28T01:45:51.332Z,3.80
2022-10-28T01:48:22.011Z,4.10
2022-10-28T01:50:54.392Z,3.50
2022-10-28T01:53:24.696Z,2.97
2022-10-28T01:55:54.909Z,2.97
2022-10-28T01:58:24.688Z,3.20
2022-10-28T02:00:52.500Z,3.75
2022-10-28T02:03:21.770Z,3.30
2022-10-28T02:05:50.471Z,3.15
2022-10-28T02:08:24.511Z,3.50
2022-10-28T02:10:59.672Z,4.30
2022-10-28T02:15:57.828Z,2.83
2022-10-28T02:18:32.506Z,3.45
2022-10-28T02:21:01.897Z,3.35
2022-10-28T02:23:38.230Z,3.00
2022-10-28T02:26:10.838Z,3.45
2022-10-28T02:28:40.519Z,4.32
2022-10-28T02:31:11.607Z,3.40
2022-10-28T02:33:41.927Z,3.28
2022-10-28T02:36:12.990Z,3.03
2022-10-28T02:38:41.718Z,3.42
2022-10-28T02:41:12.796Z,3.47
2022-10-28T02:43:41.806Z,3.38
2022-10-28T02:46:10.162Z,3.80
2022-10-28T02:48:41.002Z,4.50
2022-10-28T02:51:11.649Z,3.50
2022-10-28T02:53:43.391Z,3.85
2022-10-28T02:56:11.533Z,2.90
2022-10-28T02:58:40.111Z,3.55
2022-10-28T03:01:07.848Z,3.20
2022-10-28T03:03:35.752Z,2.63
2022-10-28T03:06:03.385Z,2.83
2022-10-28T03:08:32.555Z,3.25
2022-10-28T03:11:00.301Z,2.90
2022-10-28T03:13:27.900Z,2.97
2022-10-28T03:15:55.690Z,3.45
2022-10-28T03:18:23.365Z,2.80
2022-10-28T03:20:54.212Z,3.13
2022-10-28T03:23:24.320Z,3.20
2022-10-28T03:25:53.392Z,2.72
2022-10-28T03:28:20.992Z,3.20
2022-10-28T03:30:48.562Z,3.15
2022-10-28T03:33:16.182Z,3.50
2022-10-28T03:35:43.795Z,3.20
2022-10-28T03:38:11.457Z,3.03
2022-10-28T03:40:39.066Z,3.22
2022-10-28T03:43:08.243Z,3.05
2022-10-28T03:45:35.837Z,3.55
2022-10-28T03:48:03.452Z,3.10
2022-10-28T03:50:31.204Z,3.80
2022-10-28T03:52:58.809Z,3.80
2022-10-28T03:55:27.579Z,4.30
2022-10-28T03:57:55.485Z,3.75
2022-10-28T04:00:24.766Z,3.35
2022-10-28T04:02:52.919Z,3.45
2022-10-28T04:05:21.275Z,4.50
2022-10-28T04:07:49.176Z,3.80
2022-10-28T04:10:16.879Z,3.65
2022-10-28T04:12:44.517Z,3.20
2022-10-28T04:15:12.247Z,3.15
2022-10-28T04:17:41.328Z,4.57
2022-10-28T04:20:09.700Z,4.25
2022-10-28T04:22:37.306Z,3.55
2022-10-28T04:25:05.260Z,4.18
2022-10-28T04:27:32.904Z,4.38
2022-10-28T04:30:00.659Z,4.65
2022-10-28T04:32:28.417Z,3.83
2022-10-28T04:34:57.501Z,3.50
2022-10-28T04:37:25.150Z,4.10
2022-10-28T04:39:52.716Z,4.47
2022-10-28T04:42:20.347Z,3.92
2022-10-28T04:44:47.997Z,4.10
2022-10-28T04:47:15.687Z,3.83
2022-10-28T04:49:43.285Z,3.95
2022-10-28T04:52:14.921Z,4.70
2022-10-28T04:54:43.575Z,3.97
2022-10-28T04:57:11.302Z,4.13
2022-10-28T04:59:38.900Z,3.90
2022-10-28T05:02:06.616Z,3.45
2022-10-28T05:04:34.322Z,4.25
2022-10-28T05:07:01.905Z,4.18
2022-10-28T05:09:30.899Z,4.00
2022-10-28T05:11:58.818Z,3.47
2022-10-28T05:14:26.400Z,4.47
2022-10-28T05:16:54.051Z,4.20
2022-10-28T05:19:21.712Z,3.85
2022-10-28T05:21:49.313Z,4.22
2022-10-28T05:24:16.921Z,4.22
2022-10-28T05:26:45.879Z,4.05
2022-10-28T05:29:13.509Z,6.68
2022-10-28T05:31:41.215Z,4.15
2022-10-28T05:34:09.026Z,4.68
2022-10-28T05:36:36.632Z,4.45
2022-10-28T05:39:04.963Z,3.92
2022-10-28T05:41:36.472Z,4.32
2022-10-28T05:44:07.743Z,4.05
2022-10-28T05:46:35.483Z,4.38
2022-10-28T05:49:03.230Z,4.97
2022-10-28T05:51:30.937Z,3.63
2022-10-28T05:53:58.550Z,4.63
2022-10-28T05:56:26.183Z,4.05
2022-10-28T05:58:53.873Z,4.25
2022-10-28T06:01:22.973Z,3.95
2022-10-28T06:03:50.660Z,4.13
2022-10-28T06:06:18.308Z,3.80
2022-10-28T06:08:46.028Z,4.35
2022-10-28T06:11:12.346Z,4.32
2022-10-28T06:13:40.020Z,4.70
2022-10-28T06:16:08.112Z,4.55
2022-10-28T06:18:37.063Z,5.10
2022-10-28T06:21:04.920Z,4.43
2022-10-28T06:23:32.522Z,4.90
2022-10-28T06:26:00.690Z,4.57
2022-10-28T06:28:28.405Z,4.13
2022-10-28T06:31:01.357Z,4.30
2022-10-28T06:33:28.970Z,3.72
2022-10-28T06:35:57.988Z,4.20
2022-10-28T06:38:25.611Z,3.75
2022-10-28T06:40:53.201Z,4.05
2022-10-28T06:43:20.823Z,3.88
2022-10-28T06:45:53.499Z,4.55
2022-10-28T06:48:22.698Z,3.65
2022-10-28T06:50:50.286Z,3.78
2022-10-28T06:53:19.265Z,3.70
2022-10-28T06:55:52.984Z,5.65
2022-10-28T06:58:20.565Z,3.78
2022-10-28T07:00:48.175Z,4.25
2022-10-28T07:03:15.949Z,3.78
2022-10-28T07:05:43.562Z,3.47
2022-10-28T07:08:11.199Z,3.58
2022-10-28T07:10:40.427Z,4.70
2022-10-28T07:13:08.327Z,3.47
2022-10-28T07:15:39.170Z,3.85
2022-10-28T07:18:06.840Z,4.68
2022-10-28T07:20:34.462Z,3.83
2022-10-28T07:23:03.027Z,5.63
2022-10-28T07:25:31.785Z,5.28
2022-10-28T07:28:01.147Z,4.63
2022-10-28T07:30:29.652Z,4.53
2022-10-28T07:33:00.968Z,4.72
2022-10-28T07:35:29.074Z,4.47
2022-10-28T07:37:56.710Z,4.50
2022-10-28T07:40:25.245Z,4.05
2022-10-28T07:42:53.262Z,4.93
2022-10-28T07:45:22.457Z,4.22
2022-10-28T07:47:50.178Z,4.15
2022-10-28T07:50:18.116Z,4.05
2022-10-28T07:52:45.795Z,3.95
2022-10-28T07:55:13.468Z,3.67
2022-10-28T07:57:41.082Z,3.92
2022-10-28T08:00:09.197Z,4.53
2022-10-28T08:02:38.467Z,3.80
2022-10-28T08:05:06.561Z,3.78
2022-10-28T08:07:37.705Z,3.95
2022-10-28T08:10:09.840Z,3.72
2022-10-28T08:12:37.598Z,3.63
2022-10-28T08:15:05.653Z,4.63
2022-10-28T08:17:33.232Z,4.35
2022-10-28T08:20:02.586Z,4.05
2022-10-28T08:22:30.273Z,4.43
2022-10-28T08:24:57.873Z,3.75
2022-10-28T08:27:25.502Z,4.10
2022-10-28T08:29:54.132Z,4.30
2022-10-28T08:32:21.843Z,4.30
2022-10-28T08:34:49.554Z,4.95
2022-10-28T08:37:18.899Z,4.70
2022-10-28T08:39:46.567Z,3.80
2022-10-28T08:42:24.449Z,4.03
2022-10-28T08:44:58.315Z,4.20
2022-10-28T08:47:33.560Z,3.95
2022-10-28T08:50:03.693Z,3.38
2022-10-28T08:52:35.177Z,4.00
2022-10-28T08:55:05.262Z,3.20
2022-10-28T08:57:36.068Z,3.28
2022-10-28T09:00:06.035Z,3.90
2022-10-28T09:02:37.366Z,3.38
2022-10-28T09:05:07.048Z,3.90
2022-10-28T09:07:37.431Z,3.72
2022-10-28T09:10:05.946Z,3.28
2022-10-28T09:12:42.571Z,3.45
2022-10-28T09:15:18.051Z,3.90
2022-10-28T09:17:49.384Z,3.08
2022-10-28T09:20:18.700Z,4.00
2022-10-28T09:22:51.890Z,3.53
2022-10-28T09:25:23.932Z,3.45
2022-10-28T09:27:57.872Z,3.08
2022-10-28T09:30:32.477Z,3.67
2022-10-28T09:33:06.353Z,3.65
2022-10-28T09:35:37.617Z,3.95
2022-10-28T09:38:10.658Z,3.35
2022-10-28T09:40:41.861Z,3.20
2022-10-28T09:43:12.835Z,3.38
2022-10-28T09:45:44.086Z,4.22
2022-10-28T09:48:22.460Z,2.92
2022-10-28T09:50:51.947Z,2.83
2022-10-28T09:53:25.786Z,4.00
2022-10-28T09:55:53.718Z,3.13
2022-10-28T09:58:21.424Z,3.58
2022-10-28T10:00:49.243Z,2.97
2022-10-28T10:03:17.645Z,3.53
2022-10-28T10:05:50.876Z,3.53
2022-10-28T10:08:19.958Z,3.67
2022-10-28T10:10:50.513Z,3.67
2022-10-28T10:13:20.068Z,3.42
2022-10-28T10:15:49.466Z,2.70
2022-10-28T10:18:20.915Z,3.10
2022-10-28T10:20:49.556Z,3.40
2022-10-28T10:23:24.740Z,3.70
2022-10-28T10:25:58.270Z,2.80
2022-10-28T10:28:26.460Z,2.90
2022-10-28T10:30:55.504Z,3.25
2022-10-28T10:33:24.991Z,3.47
2022-10-28T10:36:00.099Z,3.30
2022-10-28T10:38:28.906Z,2.70
2022-10-28T10:40:57.981Z,3.40
2022-10-28T10:43:30.772Z,3.10
2022-10-28T10:46:02.638Z,3.17
2022-10-28T10:48:32.279Z,3.47
2022-10-28T10:51:05.445Z,3.15
2022-10-28T10:53:36.019Z,3.00
2022-10-28T10:56:06.632Z,3.40
2022-10-28T10:58:35.390Z,2.72
2022-10-28T11:01:04.472Z,3.80
2022-10-28T11:03:34.877Z,2.90
2022-10-28T11:06:23.491Z,3.22
2022-10-28T11:08:55.623Z,3.08
2022-10-28T11:11:34.008Z,3.45
2022-10-28T11:14:05.728Z,3.03
2022-10-28T11:16:33.341Z,3.45
2022-10-28T11:19:16.115Z,2.90
2022-10-28T11:21:51.698Z,3.50
2022-10-28T11:24:27.268Z,3.00
2022-10-28T11:27:01.428Z,3.13
2022-10-28T11:29:29.551Z,3.33
2022-10-28T11:32:08.316Z,3.55
2022-10-28T11:34:54.001Z,2.63
2022-10-28T11:37:27.536Z,2.90
2022-10-28T11:40:02.197Z,2.88
2022-10-28T11:42:33.813Z,3.17
2022-10-28T11:45:04.689Z,3.22
2022-10-28T11:47:45.445Z,2.88
2022-10-28T11:50:30.207Z,2.45
2022-10-28T11:53:06.404Z,3.00
2022-10-28T11:55:36.368Z,3.60
2022-10-28T12:00:54.421Z,2.50
2022-10-28T12:03:33.201Z,3.60
2022-10-28T12:06:06.368Z,3.15
2022-10-28T12:08:39.804Z,3.28
2022-10-28T12:11:17.983Z,2.58
2022-10-28T12:13:50.866Z,3.05
2022-10-28T12:16:20.518Z,3.15
2022-10-28T12:18:52.427Z,3.17
2022-10-28T12:21:24.354Z,3.22
2022-10-28T12:23:54.608Z,2.67
2022-10-28T12:26:25.064Z,2.55
2022-10-28T12:28:56.839Z,2.97
2022-10-28T12:31:26.958Z,3.00
2022-10-28T12:33:56.442Z,3.55
2022-10-28T12:36:32.168Z,2.65
2022-10-28T12:39:01.959Z,3.72
2022-10-28T12:41:44.804Z,2.63
2022-10-28T12:44:14.923Z,2.70
2022-10-28T12:49:26.723Z,3.38
2022-10-28T12:51:54.904Z,3.15
2022-10-28T12:54:26.496Z,2.97
2022-10-28T12:56:58.178Z,2.90
2022-10-28T12:59:30.729Z,2.88
2022-10-28T13:02:01.462Z,2.95
2022-10-28T13:04:29.710Z,3.85
2022-10-28T13:07:10.137Z,3.45
2022-10-28T13:09:50.956Z,2.92
2022-10-28T13:12:28.364Z,3.40
2022-10-28T13:15:20.845Z,2.58
2022-10-28T13:17:55.258Z,3.30
2022-10-28T13:20:31.399Z,3.13
2022-10-28T13:23:06.473Z,4.13
2022-10-28T13:25:54.673Z,3.63
2022-10-28T13:28:23.567Z,2.80
2022-10-28T13:30:56.684Z,2.53
2022-10-28T13:33:25.703Z,3.20
2022-10-28T13:38:27.846Z,3.20
2022-10-28T13:41:14.002Z,2.45
2022-10-28T13:44:14.713Z,3.70
2022-10-28T13:47:01.186Z,3.08
2022-10-28T13:49:30.256Z,2.75
2022-10-28T13:52:02.005Z,3.20
2022-10-28T13:54:32.344Z,2.67
2022-10-28T13:57:07.928Z,3.40
2022-10-28T13:59:50.999Z,3.40
2022-10-28T14:02:34.577Z,3.38
2022-10-28T14:05:06.534Z,3.15
2022-10-28T14:07:35.558Z,3.10
2022-10-28T14:10:19.255Z,3.58
2022-10-28T14:12:49.497Z,2.90
2022-10-28T14:15:19.224Z,3.15
2022-10-28T14:17:48.870Z,3.45
2022-10-28T14:20:25.790Z,2.95
2022-10-28T14:22:54.388Z,2.83
2022-10-28T14:25:56.685Z,3.78
2022-10-28T14:28:43.083Z,3.78
2022-10-28T14:31:34.673Z,3.08
2022-10-28T14:34:20.823Z,3.33
2022-10-28T14:36:55.430Z,2.90
2022-10-28T14:39:35.694Z,3.38
2022-10-28T14:42:10.408Z,3.10
2022-10-28T14:44:47.562Z,3.70
2022-10-28T14:47:23.634Z,2.97
2022-10-28T14:50:00.481Z,3.67
2022-10-28T14:52:35.487Z,3.38
2022-10-28T14:57:34.480Z,3.47
2022-10-28T15:00:03.130Z,3.30
2022-10-28T15:02:32.120Z,3.17
2022-10-28T15:05:03.102Z,3.22
2022-10-28T15:07:37.784Z,3.67
2022-10-28T15:10:14.626Z,3.33
2022-10-28T15:12:44.334Z,3.10
2022-10-28T15:15:18.806Z,3.22
2022-10-28T15:17:46.451Z,3.88
2022-10-28T15:20:20.944Z,3.55
2022-10-28T15:22:50.108Z,3.33
2022-10-28T15:25:18.345Z,3.65
2022-10-28T15:27:47.109Z,3.75
2022-10-28T15:30:16.349Z,2.95
2022-10-28T15:32:43.993Z,3.08
2022-10-28T15:35:30.681Z,2.97
2022-10-28T15:38:01.131Z,3.35
2022-10-28T15:40:29.652Z,2.90
2022-10-28T15:42:59.390Z,3.20
2022-10-28T15:45:28.187Z,3.28
2022-10-28T15:47:56.877Z,3.38
2022-10-28T15:50:29.449Z,3.92
2022-10-28T15:53:11.929Z,4.15
2022-10-28T15:56:06.904Z,3.72
2022-10-28T15:58:33.952Z,3.58
2022-10-28T16:01:01.623Z,3.40
2022-10-28T16:06:02.709Z,3.72
2022-10-28T16:08:30.924Z,3.08
2022-10-28T16:11:01.671Z,3.00
2022-10-28T16:13:31.441Z,3.20
2022-10-28T16:16:01.464Z,3.53
2022-10-28T16:18:30.606Z,3.90
2022-10-28T16:21:04.198Z,3.55
2022-10-28T16:23:35.136Z,3.55
2022-10-28T16:26:04.154Z,3.47
2022-10-28T16:28:32.204Z,3.53
2022-10-28T16:31:01.210Z,4.13
2022-10-28T16:33:33.545Z,5.03
2022-10-28T16:36:02.583Z,3.33
2022-10-28T16:38:30.758Z,3.75
2022-10-28T16:40:59.258Z,3.88
2022-10-28T16:43:29.147Z,4.25
2022-10-28T16:45:57.420Z,4.72
2022-10-28T16:48:25.715Z,3.65
2022-10-28T16:50:54.107Z,4.32
2022-10-28T16:53:21.929Z,4.57
2022-10-28T16:55:49.731Z,3.78
2022-10-28T16:58:19.565Z,3.17
2022-10-28T17:00:50.811Z,3.95
2022-10-28T17:03:18.412Z,3.30
2022-10-28T17:05:46.255Z,3.58
2022-10-28T17:08:13.975Z,3.90
2022-10-28T17:10:42.388Z,3.78
2022-10-28T17:13:11.768Z,5.03
2022-10-28T17:15:39.435Z,4.18
2022-10-28T17:18:08.817Z,4.55
2022-10-28T17:20:36.496Z,3.50
2022-10-28T17:23:05.316Z,3.72
2022-10-28T17:25:32.987Z,4.20
2022-10-28T17:28:00.656Z,4.03
2022-10-28T17:30:28.345Z,4.80
2022-10-28T17:32:56.053Z,3.97
2022-10-28T17:35:25.282Z,3.95
2022-10-28T17:37:53.362Z,4.28
2022-10-28T17:40:21.281Z,3.97
2022-10-28T17:42:48.880Z,4.55
2022-10-28T17:45:19.513Z,4.20
2022-10-28T17:47:49.620Z,4.88
2022-10-28T17:50:17.596Z,3.75
2022-10-28T17:52:46.789Z,4.10
2022-10-28T17:55:14.481Z,3.95
2022-10-28T17:57:44.530Z,3.88
2022-10-28T18:00:12.560Z,4.22
2022-10-28T18:02:40.771Z,3.67
2022-10-28T18:05:08.948Z,4.18
2022-10-28T18:07:36.603Z,3.42
2022-10-28T18:10:06.162Z,3.58
2022-10-28T18:12:33.945Z,4.18
2022-10-28T18:15:01.590Z,3.17
2022-10-28T18:17:29.360Z,4.03
2022-10-28T18:19:57.929Z,3.50
2022-10-28T18:24:58.028Z,3.72
2022-10-28T18:27:29.672Z,3.22
2022-10-28T18:29:57.291Z,2.95
2022-10-28T18:32:25.053Z,3.28
2022-10-28T18:34:52.856Z,4.55
2022-10-28T18:37:20.513Z,3.55
2022-10-28T18:39:48.196Z,4.10
2022-10-28T18:42:19.295Z,2.90
2022-10-28T18:44:50.699Z,3.25
2022-10-28T18:47:18.348Z,3.38
2022-10-28T18:49:46.325Z,4.35
2022-10-28T18:52:13.999Z,3.20
2022-10-28T18:54:41.620Z,4.25
2022-10-28T18:57:09.272Z,5.07
2022-10-28T18:59:43.198Z,5.25
2022-10-28T19:02:21.834Z,4.70
2022-10-28T19:04:49.645Z,4.80
2022-10-28T19:07:17.644Z,3.78
2022-10-28T19:09:45.366Z,4.90
2022-10-28T19:12:13.182Z,4.43
2022-10-28T19:14:40.829Z,4.30
2022-10-28T19:17:09.076Z,3.95
2022-10-28T19:19:39.344Z,4.93
2022-10-28T19:22:08.303Z,4.80
2022-10-28T19:24:36.011Z,4.80
2022-10-28T19:27:04.357Z,4.45
2022-10-28T19:29:32.390Z,4.25
2022-10-28T19:32:00.111Z,3.80
2022-10-28T19:34:28.424Z,6.53
2022-10-28T19:36:57.461Z,4.38
2022-10-28T19:39:25.185Z,3.83
2022-10-28T19:41:52.834Z,5.20
2022-10-28T19:44:21.086Z,3.67
2022-10-28T19:46:48.721Z,4.75
2022-10-28T19:49:16.361Z,3.92
2022-10-28T19:51:44.172Z,4.30
2022-10-28T19:54:15.088Z,5.30
2022-10-28T19:56:45.208Z,3.97
2022-10-28T19:59:12.896Z,4.15
2022-10-28T20:01:41.021Z,4.25
2022-10-28T20:04:09.917Z,4.13
2022-10-28T20:06:38.502Z,4.82
2022-10-28T20:09:06.471Z,5.28
2022-10-28T20:11:37.467Z,5.60
2022-10-28T20:14:08.603Z,5.05
2022-10-28T20:16:36.693Z,4.95
2022-10-28T20:19:12.518Z,5.55
2022-10-28T20:21:40.531Z,5.55
2022-10-28T20:24:08.655Z,5.15
2022-10-28T20:26:38.509Z,5.40
2022-10-28T20:29:08.784Z,5.63
2022-10-28T20:31:38.537Z,6.15
2022-10-28T20:34:06.346Z,4.93
2022-10-28T20:36:34.829Z,6.55
2022-10-28T20:39:03.162Z,5.68
2022-10-28T20:41:32.148Z,4.95
2022-10-28T20:44:01.606Z,4.80
2022-10-28T20:46:29.288Z,5.32
2022-10-28T20:48:56.963Z,6.35
2022-10-28T20:51:25.698Z,6.00
2022-10-28T20:53:53.454Z,5.82
2022-10-28T20:56:22.189Z,6.05
2022-10-28T20:58:49.896Z,5.20
2022-10-28T21:01:20.052Z,5.05
2022-10-28T21:03:47.879Z,4.43
2022-10-28T21:06:16.581Z,4.82
2022-10-28T21:08:44.363Z,4.28
2022-10-28T21:11:13.536Z,4.70
2022-10-28T21:13:42.506Z,4.68
2022-10-28T21:16:11.476Z,5.85
2022-10-28T21:18:41.256Z,4.70
2022-10-28T21:21:08.925Z,4.70
2022-10-28T21:23:36.621Z,4.88
2022-10-28T21:26:05.517Z,4.85
2022-10-28T21:28:33.865Z,4.80
2022-10-28T21:31:01.943Z,4.18
2022-10-28T21:33:30.007Z,4.60
2022-10-28T21:36:00.040Z,4.70
2022-10-28T21:38:28.681Z,4.60
2022-10-28T21:40:59.985Z,6.93
2022-10-28T21:43:28.672Z,5.93
2022-10-28T21:45:56.515Z,6.05
2022-10-28T21:48:24.309Z,6.43
2022-10-28T21:50:53.759Z,6.18
2022-10-28T21:53:22.901Z,5.60
2022-10-28T21:55:51.361Z,6.25
2022-10-28T21:58:19.164Z,5.88
2022-10-28T22:00:47.085Z,6.40
2022-10-28T22:03:14.869Z,4.45
2022-10-28T22:05:50.217Z,5.38
2022-10-28T22:08:18.111Z,4.10
2022-10-28T22:10:47.258Z,5.75
2022-10-28T22:13:14.960Z,5.07
2022-10-28T22:15:42.614Z,6.60
2022-10-28T22:18:10.262Z,6.32
2022-10-28T22:20:37.856Z,5.68
2022-10-28T22:23:05.485Z,6.00
2022-10-28T22:25:33.171Z,6.90
2022-10-28T22:28:02.140Z,6.25
2022-10-28T22:30:29.892Z,8.18
2022-10-28T22:32:57.911Z,7.88
2022-10-28T22:35:25.636Z,7.97
2022-10-28T22:37:53.604Z,8.40
2022-10-28T22:40:21.479Z,6.90
2022-10-28T22:42:49.116Z,6.63
2022-10-28T22:45:18.156Z,6.78
2022-10-28T22:47:45.882Z,8.07
2022-10-28T22:50:13.520Z,6.70
2022-10-28T22:52:41.187Z,5.75
2022-10-28T22:55:09.122Z,6.22
2022-10-28T22:57:36.712Z,4.70
2022-10-28T23:00:04.622Z,6.88
2022-10-28T23:02:33.762Z,5.95
2022-10-28T23:05:01.428Z,5.53
2022-10-28T23:07:29.029Z,5.90
2022-10-28T23:09:58.807Z,6.55
2022-10-28T23:12:26.707Z,6.47
2022-10-28T23:14:54.355Z,6.30
2022-10-28T23:17:21.953Z,6.50
2022-10-28T23:19:50.886Z,6.88
2022-10-28T23:22:18.741Z,7.03
2022-10-28T23:24:46.412Z,7.07
2022-10-28T23:27:14.001Z,6.95
2022-10-28T23:29:41.613Z,8.60
2022-10-28T23:32:09.196Z,8.38
2022-10-28T23:34:36.820Z,8.40
2022-10-28T23:37:05.871Z,8.55
2022-10-28T23:39:33.627Z,8.30
2022-10-28T23:42:01.353Z,10.75
2022-10-28T23:44:28.951Z,10.48
2022-10-28T23:46:56.801Z,8.55
2022-10-28T23:49:24.409Z,8.60
2022-10-28T23:51:52.172Z,8.15
2022-10-28T23:54:21.123Z,7.20
2022-10-28T23:56:48.757Z,6.40
2022-10-28T23:59:16.324Z,6.15
